sensor_id;sensor_type;location;lat;lon;timestamp;P1;durP1;ratioP1;P2;durP2;ratioP2
59054;SDS011;44845;51.444;7.460;2023-03-13T00:00:52;19.80;;;2.50;;
59054;SDS011;44845;51.444;7.460;2023-03-13T00:03:19;19.05;;;3.83;;
59054;SDS011;44845;51.444;7.460;2023-03-13T00:05:44;19.92;;;3.13;;
59054;SDS011;44845;51.444;7.460;2023-03-13T00:08:10;20.88;;;3.35;;
59054;SDS011;44845;51.444;7.460;2023-03-13T00:10:36;13.93;;;2.80;;
59054;SDS011;44845;51.444;7.460;2023-03-13T00:13:02;14.52;;;3.13;;
59054;SDS011;44845;51.444;7.460;2023-03-13T00:15:28;18.02;;;3.75;;
59054;SDS011;44845;51.444;7.460;2023-03-13T00:17:53;17.77;;;2.88;;
59054;SDS011;44845;51.444;7.460;2023-03-13T00:20:18;13.25;;;2.85;;
59054;SDS011;44845;51.444;7.460;2023-03-13T00:22:44;14.88;;;3.05;;
59054;SDS011;44845;51.444;7.460;2023-03-13T00:25:09;22.73;;;3.33;;
59054;SDS011;44845;51.444;7.460;2023-03-13T00:27:34;19.60;;;3.00;;
59054;SDS011;44845;51.444;7.460;2023-03-13T00:30:00;15.93;;;2.55;;
59054;SDS011;44845;51.444;7.460;2023-03-13T00:32:25;15.57;;;2.50;;
59054;SDS011;44845;51.444;7.460;2023-03-13T00:34:51;17.13;;;2.95;;
59054;SDS011;44845;51.444;7.460;2023-03-13T00:37:16;12.38;;;2.35;;
59054;SDS011;44845;51.444;7.460;2023-03-13T00:39:41;20.40;;;3.40;;
59054;SDS011;44845;51.444;7.460;2023-03-13T00:42:07;15.30;;;2.95;;
59054;SDS011;44845;51.444;7.460;2023-03-13T00:44:32;15.98;;;3.30;;
59054;SDS011;44845;51.444;7.460;2023-03-13T00:46:57;19.23;;;2.65;;
59054;SDS011;44845;51.444;7.460;2023-03-13T00:49:23;12.55;;;2.97;;
59054;SDS011;44845;51.444;7.460;2023-03-13T00:51:48;13.13;;;3.03;;
59054;SDS011;44845;51.444;7.460;2023-03-13T00:54:13;12.80;;;2.58;;
59054;SDS011;44845;51.444;7.460;2023-03-13T00:56:39;15.95;;;2.53;;
59054;SDS011;44845;51.444;7.460;2023-03-13T00:59:04;18.95;;;2.85;;
59054;SDS011;44845;51.444;7.460;2023-03-13T01:01:31;16.63;;;2.85;;
59054;SDS011;44845;51.444;7.460;2023-03-13T01:03:59;15.88;;;2.80;;
59054;SDS011;44845;51.444;7.460;2023-03-13T01:06:30;18.33;;;2.60;;
59054;SDS011;44845;51.444;7.460;2023-03-13T01:08:57;13.02;;;2.58;;
59054;SDS011;44845;51.444;7.460;2023-03-13T01:11:27;12.30;;;2.28;;
59054;SDS011;44845;51.444;7.460;2023-03-13T01:14:01;14.00;;;2.90;;
59054;SDS011;44845;51.444;7.460;2023-03-13T01:16:29;14.85;;;2.47;;
59054;SDS011;44845;51.444;7.460;2023-03-13T01:19:03;13.93;;;2.20;;
59054;SDS011;44845;51.444;7.460;2023-03-13T01:21:30;14.00;;;2.45;;
59054;SDS011;44845;51.444;7.460;2023-03-13T01:23:56;17.00;;;3.55;;
59054;SDS011;44845;51.444;7.460;2023-03-13T01:26:22;18.30;;;3.53;;
59054;SDS011;44845;51.444;7.460;2023-03-13T01:28:48;19.10;;;2.75;;
59054;SDS011;44845;51.444;7.460;2023-03-13T01:31:21;16.88;;;2.45;;
59054;SDS011;44845;51.444;7.460;2023-03-13T01:33:48;14.25;;;2.40;;
59054;SDS011;44845;51.444;7.460;2023-03-13T01:36:15;15.35;;;2.67;;
59054;SDS011;44845;51.444;7.460;2023-03-13T01:38:41;23.35;;;2.45;;
59054;SDS011;44845;51.444;7.460;2023-03-13T01:41:07;10.00;;;2.30;;
59054;SDS011;44845;51.444;7.460;2023-03-13T01:43:36;14.43;;;2.92;;
59054;SDS011;44845;51.444;7.460;2023-03-13T01:51:17;15.23;;;2.45;;
59054;SDS011;44845;51.444;7.460;2023-03-13T01:53:48;16.88;;;2.85;;
59054;SDS011;44845;51.444;7.460;2023-03-13T01:56:21;14.85;;;2.53;;
59054;SDS011;44845;51.444;7.460;2023-03-13T01:58:52;15.90;;;3.15;;
59054;SDS011;44845;51.444;7.460;2023-03-13T02:01:18;20.27;;;2.92;;
59054;SDS011;44845;51.444;7.460;2023-03-13T02:03:45;14.75;;;2.70;;
59054;SDS011;44845;51.444;7.460;2023-03-13T02:06:12;17.20;;;2.17;;
59054;SDS011;44845;51.444;7.460;2023-03-13T02:09:00;14.85;;;2.72;;
59054;SDS011;44845;51.444;7.460;2023-03-13T02:11:34;12.40;;;2.72;;
59054;SDS011;44845;51.444;7.460;2023-03-13T02:14:08;13.93;;;2.30;;
59054;SDS011;44845;51.444;7.460;2023-03-13T02:16:33;12.45;;;2.10;;
59054;SDS011;44845;51.444;7.460;2023-03-13T02:19:01;16.67;;;2.35;;
59054;SDS011;44845;51.444;7.460;2023-03-13T02:21:40;14.75;;;2.33;;
59054;SDS011;44845;51.444;7.460;2023-03-13T02:24:25;20.10;;;3.13;;
59054;SDS011;44845;51.444;7.460;2023-03-13T02:27:02;17.02;;;2.50;;
59054;SDS011;44845;51.444;7.460;2023-03-13T02:29:27;11.65;;;2.63;;
59054;SDS011;44845;51.444;7.460;2023-03-13T02:31:53;13.07;;;2.35;;
59054;SDS011;44845;51.444;7.460;2023-03-13T02:34:20;19.98;;;3.03;;
59054;SDS011;44845;51.444;7.460;2023-03-13T02:36:48;16.35;;;3.15;;
59054;SDS011;44845;51.444;7.460;2023-03-13T02:39:15;15.45;;;2.45;;
59054;SDS011;44845;51.444;7.460;2023-03-13T02:41:42;16.70;;;2.60;;
59054;SDS011;44845;51.444;7.460;2023-03-13T02:44:09;12.82;;;2.78;;
59054;SDS011;44845;51.444;7.460;2023-03-13T02:46:44;13.57;;;2.97;;
59054;SDS011;44845;51.444;7.460;2023-03-13T02:51:48;15.10;;;2.38;;
59054;SDS011;44845;51.444;7.460;2023-03-13T02:54:18;10.13;;;2.38;;
59054;SDS011;44845;51.444;7.460;2023-03-13T02:56:48;11.95;;;1.90;;
59054;SDS011;44845;51.444;7.460;2023-03-13T02:59:18;14.95;;;2.75;;
59054;SDS011;44845;51.444;7.460;2023-03-13T03:01:46;13.95;;;2.75;;
59054;SDS011;44845;51.444;7.460;2023-03-13T03:04:11;12.27;;;2.33;;
59054;SDS011;44845;51.444;7.460;2023-03-13T03:06:36;11.10;;;2.40;;
59054;SDS011;44845;51.444;7.460;2023-03-13T03:09:02;8.43;;;1.77;;
59054;SDS011;44845;51.444;7.460;2023-03-13T03:11:27;11.82;;;2.30;;
59054;SDS011;44845;51.444;7.460;2023-03-13T03:13:53;13.95;;;2.20;;
59054;SDS011;44845;51.444;7.460;2023-03-13T03:16:18;11.63;;;2.38;;
59054;SDS011;44845;51.444;7.460;2023-03-13T03:18:44;9.18;;;2.13;;
59054;SDS011;44845;51.444;7.460;2023-03-13T03:21:10;13.18;;;1.80;;
59054;SDS011;44845;51.444;7.460;2023-03-13T03:23:36;9.35;;;2.35;;
59054;SDS011;44845;51.444;7.460;2023-03-13T03:26:02;11.07;;;2.92;;
59054;SDS011;44845;51.444;7.460;2023-03-13T03:28:29;12.55;;;2.42;;
59054;SDS011;44845;51.444;7.460;2023-03-13T03:30:54;13.98;;;2.22;;
59054;SDS011;44845;51.444;7.460;2023-03-13T03:33:21;7.32;;;2.00;;
59054;SDS011;44845;51.444;7.460;2023-03-13T03:35:47;7.15;;;1.77;;
59054;SDS011;44845;51.444;7.460;2023-03-13T03:38:13;13.07;;;2.25;;
59054;SDS011;44845;51.444;7.460;2023-03-13T03:40:39;11.77;;;2.10;;
59054;SDS011;44845;51.444;7.460;2023-03-13T03:43:04;10.90;;;2.17;;
59054;SDS011;44845;51.444;7.460;2023-03-13T03:45:30;8.43;;;1.75;;
59054;SDS011;44845;51.444;7.460;2023-03-13T03:47:55;8.77;;;1.73;;
59054;SDS011;44845;51.444;7.460;2023-03-13T03:50:23;5.95;;;1.50;;
59054;SDS011;44845;51.444;7.460;2023-03-13T03:52:49;11.52;;;1.63;;
59054;SDS011;44845;51.444;7.460;2023-03-13T03:55:15;6.07;;;1.50;;
59054;SDS011;44845;51.444;7.460;2023-03-13T03:57:40;7.30;;;1.27;;
59054;SDS011;44845;51.444;7.460;2023-03-13T04:00:06;5.63;;;1.30;;
59054;SDS011;44845;51.444;7.460;2023-03-13T04:02:33;7.57;;;1.30;;
59054;SDS011;44845;51.444;7.460;2023-03-13T04:04:58;6.00;;;1.10;;
59054;SDS011;44845;51.444;7.460;2023-03-13T04:07:23;7.97;;;1.23;;
59054;SDS011;44845;51.444;7.460;2023-03-13T04:09:50;7.07;;;1.67;;
59054;SDS011;44845;51.444;7.460;2023-03-13T04:12:15;5.43;;;1.38;;
59054;SDS011;44845;51.444;7.460;2023-03-13T04:14:40;6.47;;;1.73;;
59054;SDS011;44845;51.444;7.460;2023-03-13T04:17:06;7.10;;;1.48;;
59054;SDS011;44845;51.444;7.460;2023-03-13T04:19:31;7.70;;;1.13;;
59054;SDS011;44845;51.444;7.460;2023-03-13T04:21:57;7.45;;;1.10;;
59054;SDS011;44845;51.444;7.460;2023-03-13T04:24:22;4.50;;;1.15;;
59054;SDS011;44845;51.444;7.460;2023-03-13T04:26:47;5.28;;;1.05;;
59054;SDS011;44845;51.444;7.460;2023-03-13T04:29:13;6.60;;;1.25;;
59054;SDS011;44845;51.444;7.460;2023-03-13T04:31:38;4.53;;;1.27;;
59054;SDS011;44845;51.444;7.460;2023-03-13T04:34:03;4.45;;;1.27;;
59054;SDS011;44845;51.444;7.460;2023-03-13T04:36:29;9.50;;;1.55;;
59054;SDS011;44845;51.444;7.460;2023-03-13T04:38:54;4.95;;;1.10;;
59054;SDS011;44845;51.444;7.460;2023-03-13T04:41:19;6.03;;;1.60;;
59054;SDS011;44845;51.444;7.460;2023-03-13T04:43:45;4.15;;;1.02;;
59054;SDS011;44845;51.444;7.460;2023-03-13T04:46:10;6.97;;;0.93;;
59054;SDS011;44845;51.444;7.460;2023-03-13T04:48:35;7.80;;;1.25;;
59054;SDS011;44845;51.444;7.460;2023-03-13T04:51:01;3.88;;;1.13;;
59054;SDS011;44845;51.444;7.460;2023-03-13T04:53:26;3.70;;;1.10;;
59054;SDS011;44845;51.444;7.460;2023-03-13T04:55:51;4.95;;;0.95;;
59054;SDS011;44845;51.444;7.460;2023-03-13T04:58:17;6.93;;;1.55;;
59054;SDS011;44845;51.444;7.460;2023-03-13T05:00:42;2.22;;;1.10;;
59054;SDS011;44845;51.444;7.460;2023-03-13T05:03:07;2.28;;;0.75;;
59054;SDS011;44845;51.444;7.460;2023-03-13T05:05:33;4.32;;;1.02;;
59054;SDS011;44845;51.444;7.460;2023-03-13T05:07:59;4.18;;;0.98;;
59054;SDS011;44845;51.444;7.460;2023-03-13T05:10:25;4.70;;;1.05;;
59054;SDS011;44845;51.444;7.460;2023-03-13T05:12:50;5.05;;;1.33;;
59054;SDS011;44845;51.444;7.460;2023-03-13T05:15:15;1.92;;;0.88;;
59054;SDS011;44845;51.444;7.460;2023-03-13T05:17:40;2.63;;;0.98;;
59054;SDS011;44845;51.444;7.460;2023-03-13T05:20:06;5.70;;;1.30;;
59054;SDS011;44845;51.444;7.460;2023-03-13T05:22:35;3.90;;;0.90;;
59054;SDS011;44845;51.444;7.460;2023-03-13T05:25:00;4.20;;;0.93;;
59054;SDS011;44845;51.444;7.460;2023-03-13T05:27:26;3.28;;;1.08;;
59054;SDS011;44845;51.444;7.460;2023-03-13T05:29:51;2.45;;;0.88;;
59054;SDS011;44845;51.444;7.460;2023-03-13T05:32:16;2.80;;;0.93;;
59054;SDS011;44845;51.444;7.460;2023-03-13T05:34:42;3.40;;;1.13;;
59054;SDS011;44845;51.444;7.460;2023-03-13T05:37:07;3.45;;;0.90;;
59054;SDS011;44845;51.444;7.460;2023-03-13T05:39:32;2.80;;;0.95;;
59054;SDS011;44845;51.444;7.460;2023-03-13T05:41:57;2.78;;;0.90;;
59054;SDS011;44845;51.444;7.460;2023-03-13T05:44:23;3.22;;;0.95;;
59054;SDS011;44845;51.444;7.460;2023-03-13T05:46:48;3.17;;;1.10;;
59054;SDS011;44845;51.444;7.460;2023-03-13T05:49:14;3.00;;;0.82;;
59054;SDS011;44845;51.444;7.460;2023-03-13T05:51:39;1.95;;;0.80;;
59054;SDS011;44845;51.444;7.460;2023-03-13T05:54:04;3.92;;;1.20;;
59054;SDS011;44845;51.444;7.460;2023-03-13T05:56:29;1.45;;;1.00;;
59054;SDS011;44845;51.444;7.460;2023-03-13T05:58:55;1.70;;;0.88;;
59054;SDS011;44845;51.444;7.460;2023-03-13T06:01:20;3.72;;;1.30;;
59054;SDS011;44845;51.444;7.460;2023-03-13T06:03:45;3.17;;;1.20;;
59054;SDS011;44845;51.444;7.460;2023-03-13T06:06:11;1.17;;;1.05;;
59054;SDS011;44845;51.444;7.460;2023-03-13T06:08:36;5.30;;;1.20;;
59054;SDS011;44845;51.444;7.460;2023-03-13T06:11:02;4.22;;;1.40;;
59054;SDS011;44845;51.444;7.460;2023-03-13T06:13:27;4.07;;;1.60;;
59054;SDS011;44845;51.444;7.460;2023-03-13T06:15:54;1.45;;;1.35;;
59054;SDS011;44845;51.444;7.460;2023-03-13T06:18:20;1.80;;;1.20;;
59054;SDS011;44845;51.444;7.460;2023-03-13T06:20:47;4.00;;;1.67;;
59054;SDS011;44845;51.444;7.460;2023-03-13T06:23:13;1.52;;;1.40;;
59054;SDS011;44845;51.444;7.460;2023-03-13T06:25:38;2.65;;;1.45;;
59054;SDS011;44845;51.444;7.460;2023-03-13T06:28:03;2.05;;;1.65;;
59054;SDS011;44845;51.444;7.460;2023-03-13T06:30:29;1.70;;;1.60;;
59054;SDS011;44845;51.444;7.460;2023-03-13T06:32:54;3.13;;;1.60;;
59054;SDS011;44845;51.444;7.460;2023-03-13T06:35:19;2.92;;;1.77;;
59054;SDS011;44845;51.444;7.460;2023-03-13T06:37:45;4.55;;;1.80;;
59054;SDS011;44845;51.444;7.460;2023-03-13T06:40:10;2.50;;;1.60;;
59054;SDS011;44845;51.444;7.460;2023-03-13T06:42:36;3.42;;;1.80;;
59054;SDS011;44845;51.444;7.460;2023-03-13T06:45:02;2.85;;;1.80;;
59054;SDS011;44845;51.444;7.460;2023-03-13T06:47:29;2.05;;;1.95;;
59054;SDS011;44845;51.444;7.460;2023-03-13T06:49:56;3.28;;;1.48;;
59054;SDS011;44845;51.444;7.460;2023-03-13T06:52:21;2.60;;;1.50;;
59054;SDS011;44845;51.444;7.460;2023-03-13T06:54:47;5.13;;;1.48;;
59054;SDS011;44845;51.444;7.460;2023-03-13T06:57:12;4.30;;;1.50;;
59054;SDS011;44845;51.444;7.460;2023-03-13T06:59:38;3.22;;;1.40;;
59054;SDS011;44845;51.444;7.460;2023-03-13T07:02:03;1.67;;;1.42;;
59054;SDS011;44845;51.444;7.460;2023-03-13T07:04:28;1.85;;;1.30;;
59054;SDS011;44845;51.444;7.460;2023-03-13T07:06:54;3.38;;;0.93;;
59054;SDS011;44845;51.444;7.460;2023-03-13T07:09:19;2.17;;;1.10;;
59054;SDS011;44845;51.444;7.460;2023-03-13T07:11:45;2.30;;;1.30;;
59054;SDS011;44845;51.444;7.460;2023-03-13T07:14:10;2.13;;;1.15;;
59054;SDS011;44845;51.444;7.460;2023-03-13T07:16:36;2.63;;;1.20;;
59054;SDS011;44845;51.444;7.460;2023-03-13T07:19:01;3.13;;;1.20;;
59054;SDS011;44845;51.444;7.460;2023-03-13T07:21:26;4.10;;;1.20;;
59054;SDS011;44845;51.444;7.460;2023-03-13T07:23:52;1.30;;;1.20;;
59054;SDS011;44845;51.444;7.460;2023-03-13T07:26:17;2.58;;;1.30;;
59054;SDS011;44845;51.444;7.460;2023-03-13T07:28:42;1.20;;;1.10;;
59054;SDS011;44845;51.444;7.460;2023-03-13T07:31:15;2.38;;;1.15;;
59054;SDS011;44845;51.444;7.460;2023-03-13T07:33:42;2.17;;;1.10;;
59054;SDS011;44845;51.444;7.460;2023-03-13T07:36:09;2.00;;;1.10;;
59054;SDS011;44845;51.444;7.460;2023-03-13T07:38:35;1.30;;;1.13;;
59054;SDS011;44845;51.444;7.460;2023-03-13T07:41:01;2.17;;;1.00;;
59054;SDS011;44845;51.444;7.460;2023-03-13T07:43:26;2.60;;;1.40;;
59054;SDS011;44845;51.444;7.460;2023-03-13T07:45:54;3.28;;;1.33;;
59054;SDS011;44845;51.444;7.460;2023-03-13T07:48:22;2.20;;;1.27;;
59054;SDS011;44845;51.444;7.460;2023-03-13T07:50:49;4.07;;;1.40;;
59054;SDS011;44845;51.444;7.460;2023-03-13T07:53:15;4.43;;;1.38;;
59054;SDS011;44845;51.444;7.460;2023-03-13T07:55:54;2.50;;;1.15;;
59054;SDS011;44845;51.444;7.460;2023-03-13T07:58:22;3.42;;;1.40;;
59054;SDS011;44845;51.444;7.460;2023-03-13T08:00:48;2.75;;;1.27;;
59054;SDS011;44845;51.444;7.460;2023-03-13T08:03:14;2.30;;;1.27;;
59054;SDS011;44845;51.444;7.460;2023-03-13T08:05:39;3.53;;;1.10;;
59054;SDS011;44845;51.444;7.460;2023-03-13T08:08:05;3.10;;;1.50;;
59054;SDS011;44845;51.444;7.460;2023-03-13T08:10:30;4.93;;;1.70;;
59054;SDS011;44845;51.444;7.460;2023-03-13T08:12:56;5.10;;;1.40;;
59054;SDS011;44845;51.444;7.460;2023-03-13T08:15:21;6.30;;;1.42;;
59054;SDS011;44845;51.444;7.460;2023-03-13T08:17:50;5.38;;;1.70;;
59054;SDS011;44845;51.444;7.460;2023-03-13T08:20:16;5.53;;;1.77;;
59054;SDS011;44845;51.444;7.460;2023-03-13T08:22:43;5.95;;;1.58;;
59054;SDS011;44845;51.444;7.460;2023-03-13T08:25:10;3.50;;;1.45;;
59054;SDS011;44845;51.444;7.460;2023-03-13T08:27:36;4.15;;;1.35;;
59054;SDS011;44845;51.444;7.460;2023-03-13T08:30:01;5.18;;;1.58;;
59054;SDS011;44845;51.444;7.460;2023-03-13T08:32:27;3.17;;;1.20;;
59054;SDS011;44845;51.444;7.460;2023-03-13T08:34:52;4.15;;;1.50;;
59054;SDS011;44845;51.444;7.460;2023-03-13T08:37:18;3.95;;;1.67;;
59054;SDS011;44845;51.444;7.460;2023-03-13T08:39:43;4.22;;;1.75;;
59054;SDS011;44845;51.444;7.460;2023-03-13T08:42:10;6.60;;;1.50;;
59054;SDS011;44845;51.444;7.460;2023-03-13T08:44:38;5.60;;;1.35;;
59054;SDS011;44845;51.444;7.460;2023-03-13T08:47:04;5.95;;;1.60;;
59054;SDS011;44845;51.444;7.460;2023-03-13T08:49:31;5.45;;;1.80;;
59054;SDS011;44845;51.444;7.460;2023-03-13T08:51:56;3.97;;;1.80;;
59054;SDS011;44845;51.444;7.460;2023-03-13T08:54:22;5.05;;;2.10;;
59054;SDS011;44845;51.444;7.460;2023-03-13T08:56:47;4.07;;;1.50;;
59054;SDS011;44845;51.444;7.460;2023-03-13T08:59:12;6.00;;;1.80;;
59054;SDS011;44845;51.444;7.460;2023-03-13T09:01:39;4.28;;;1.60;;
59054;SDS011;44845;51.444;7.460;2023-03-13T09:04:05;5.05;;;1.98;;
59054;SDS011;44845;51.444;7.460;2023-03-13T09:06:32;5.57;;;1.58;;
59054;SDS011;44845;51.444;7.460;2023-03-13T09:08:58;5.70;;;1.60;;
59054;SDS011;44845;51.444;7.460;2023-03-13T09:11:25;6.60;;;1.90;;
59054;SDS011;44845;51.444;7.460;2023-03-13T09:13:50;7.10;;;2.10;;
59054;SDS011;44845;51.444;7.460;2023-03-13T09:16:17;5.82;;;1.73;;
59054;SDS011;44845;51.444;7.460;2023-03-13T09:18:44;6.32;;;2.17;;
59054;SDS011;44845;51.444;7.460;2023-03-13T09:21:15;10.13;;;2.00;;
59054;SDS011;44845;51.444;7.460;2023-03-13T09:23:42;6.60;;;1.98;;
59054;SDS011;44845;51.444;7.460;2023-03-13T09:26:07;7.05;;;1.80;;
59054;SDS011;44845;51.444;7.460;2023-03-13T09:28:34;5.45;;;1.95;;
59054;SDS011;44845;51.444;7.460;2023-03-13T09:31:12;5.68;;;1.55;;
59054;SDS011;44845;51.444;7.460;2023-03-13T09:33:40;7.85;;;1.80;;
59054;SDS011;44845;51.444;7.460;2023-03-13T09:36:06;4.50;;;1.50;;
59054;SDS011;44845;51.444;7.460;2023-03-13T09:38:32;6.68;;;2.22;;
59054;SDS011;44845;51.444;7.460;2023-03-13T09:49:11;3.95;;;1.90;;
59054;SDS011;44845;51.444;7.460;2023-03-13T09:51:40;7.10;;;2.42;;
59054;SDS011;44845;51.444;7.460;2023-03-13T09:56:52;3.55;;;2.00;;
59054;SDS011;44845;51.444;7.460;2023-03-13T09:59:23;5.82;;;2.03;;
59054;SDS011;44845;51.444;7.460;2023-03-13T10:01:53;5.00;;;2.35;;
59054;SDS011;44845;51.444;7.460;2023-03-13T10:04:41;6.50;;;1.98;;
59054;SDS011;44845;51.444;7.460;2023-03-13T10:07:12;3.70;;;1.73;;
59054;SDS011;44845;51.444;7.460;2023-03-13T10:09:37;4.43;;;1.70;;
59054;SDS011;44845;51.444;7.460;2023-03-13T10:12:11;4.60;;;1.73;;
59054;SDS011;44845;51.444;7.460;2023-03-13T10:17:43;4.22;;;1.80;;
59054;SDS011;44845;51.444;7.460;2023-03-13T10:22:34;4.97;;;1.80;;
59054;SDS011;44845;51.444;7.460;2023-03-13T10:25:05;4.65;;;1.85;;
59054;SDS011;44845;51.444;7.460;2023-03-13T10:27:44;6.60;;;1.80;;
59054;SDS011;44845;51.444;7.460;2023-03-13T10:30:18;6.07;;;1.70;;
59054;SDS011;44845;51.444;7.460;2023-03-13T10:32:59;3.60;;;1.95;;
59054;SDS011;44845;51.444;7.460;2023-03-13T10:35:44;3.75;;;1.60;;
59054;SDS011;44845;51.444;7.460;2023-03-13T10:38:17;9.48;;;1.58;;
59054;SDS011;44845;51.444;7.460;2023-03-13T10:40:43;5.10;;;1.57;;
59054;SDS011;44845;51.444;7.460;2023-03-13T10:43:21;4.13;;;1.90;;
59054;SDS011;44845;51.444;7.460;2023-03-13T10:45:50;3.80;;;1.30;;
59054;SDS011;44845;51.444;7.460;2023-03-13T10:48:23;2.22;;;1.20;;
59054;SDS011;44845;51.444;7.460;2023-03-13T10:50:51;4.38;;;1.15;;
59054;SDS011;44845;51.444;7.460;2023-03-13T10:53:20;5.20;;;1.38;;
59054;SDS011;44845;51.444;7.460;2023-03-13T10:55:49;3.67;;;1.30;;
59054;SDS011;44845;51.444;7.460;2023-03-13T10:58:19;2.10;;;1.00;;
59054;SDS011;44845;51.444;7.460;2023-03-13T11:00:48;2.60;;;1.27;;
59054;SDS011;44845;51.444;7.460;2023-03-13T11:03:25;3.60;;;1.20;;
59054;SDS011;44845;51.444;7.460;2023-03-13T11:06:00;3.83;;;1.20;;
59054;SDS011;44845;51.444;7.460;2023-03-13T11:08:28;4.05;;;1.00;;
59054;SDS011;44845;51.444;7.460;2023-03-13T11:10:59;2.80;;;0.95;;
59054;SDS011;44845;51.444;7.460;2023-03-13T11:16:09;3.53;;;1.20;;
59054;SDS011;44845;51.444;7.460;2023-03-13T11:18:52;0.80;;;0.80;;
59054;SDS011;44845;51.444;7.460;2023-03-13T11:21:23;2.20;;;0.80;;
59054;SDS011;44845;51.444;7.460;2023-03-13T11:24:00;1.42;;;0.77;;
59054;SDS011;44845;51.444;7.460;2023-03-13T11:26:35;8.30;;;0.95;;
59054;SDS011;44845;51.444;7.460;2023-03-13T11:29:11;3.70;;;0.90;;
59054;SDS011;44845;51.444;7.460;2023-03-13T11:31:43;4.18;;;0.70;;
59054;SDS011;44845;51.444;7.460;2023-03-13T11:37:13;2.80;;;1.02;;
59054;SDS011;44845;51.444;7.460;2023-03-13T11:45:35;2.20;;;0.88;;
59054;SDS011;44845;51.444;7.460;2023-03-13T11:54:03;2.03;;;0.60;;
59054;SDS011;44845;51.444;7.460;2023-03-13T11:56:43;0.60;;;0.50;;
59054;SDS011;44845;51.444;7.460;2023-03-13T12:01:59;0.98;;;0.57;;
59054;SDS011;44845;51.444;7.460;2023-03-13T12:04:33;1.25;;;0.52;;
59054;SDS011;44845;51.444;7.460;2023-03-13T12:07:04;1.50;;;0.68;;
59054;SDS011;44845;51.444;7.460;2023-03-13T12:09:42;1.40;;;0.40;;
59054;SDS011;44845;51.444;7.460;2023-03-13T12:14:58;1.75;;;0.35;;
59054;SDS011;44845;51.444;7.460;2023-03-13T12:17:35;0.63;;;0.32;;
59054;SDS011;44845;51.444;7.460;2023-03-13T12:20:04;1.75;;;0.50;;
59054;SDS011;44845;51.444;7.460;2023-03-13T12:25:49;1.33;;;0.50;;
59054;SDS011;44845;51.444;7.460;2023-03-13T12:28:24;3.38;;;0.57;;
59054;SDS011;44845;51.444;7.460;2023-03-13T12:31:04;1.20;;;0.50;;
59054;SDS011;44845;51.444;7.460;2023-03-13T12:38:56;3.78;;;0.68;;
59054;SDS011;44845;51.444;7.460;2023-03-13T12:41:46;0.50;;;0.43;;
59054;SDS011;44845;51.444;7.460;2023-03-13T12:44:31;0.73;;;0.40;;
59054;SDS011;44845;51.444;7.460;2023-03-13T12:47:00;1.75;;;0.38;;
59054;SDS011;44845;51.444;7.460;2023-03-13T12:54:49;1.95;;;0.40;;
59054;SDS011;44845;51.444;7.460;2023-03-13T13:00:34;1.48;;;0.50;;
59054;SDS011;44845;51.444;7.460;2023-03-13T13:08:36;0.30;;;0.30;;
59054;SDS011;44845;51.444;7.460;2023-03-13T13:14:53;2.33;;;0.40;;
59054;SDS011;44845;51.444;7.460;2023-03-13T13:16:48;4.28;;;0.47;;
59054;SDS011;44845;51.444;7.460;2023-03-13T13:24:50;3.75;;;0.47;;
59054;SDS011;44845;51.444;7.460;2023-03-13T13:29:55;2.65;;;0.30;;
59054;SDS011;44845;51.444;7.460;2023-03-13T13:32:35;1.35;;;0.40;;
59054;SDS011;44845;51.444;7.460;2023-03-13T13:37:40;1.02;;;0.30;;
59054;SDS011;44845;51.444;7.460;2023-03-13T13:40:17;0.70;;;0.30;;
59054;SDS011;44845;51.444;7.460;2023-03-13T13:42:57;1.27;;;0.50;;
59054;SDS011;44845;51.444;7.460;2023-03-13T14:01:27;3.40;;;0.50;;
59054;SDS011;44845;51.444;7.460;2023-03-13T14:03:57;3.15;;;0.60;;
59054;SDS011;44845;51.444;7.460;2023-03-13T14:06:35;3.33;;;0.60;;
59054;SDS011;44845;51.444;7.460;2023-03-13T14:09:10;4.03;;;0.43;;
59054;SDS011;44845;51.444;7.460;2023-03-13T14:11:44;2.53;;;0.38;;
59054;SDS011;44845;51.444;7.460;2023-03-13T14:14:13;1.10;;;0.50;;
59054;SDS011;44845;51.444;7.460;2023-03-13T14:16:45;1.45;;;0.40;;
59054;SDS011;44845;51.444;7.460;2023-03-13T14:19:26;2.40;;;0.40;;
59054;SDS011;44845;51.444;7.460;2023-03-13T14:22:07;1.50;;;0.43;;
59054;SDS011;44845;51.444;7.460;2023-03-13T14:24:34;1.20;;;0.30;;
59054;SDS011;44845;51.444;7.460;2023-03-13T14:27:00;3.65;;;0.60;;
59054;SDS011;44845;51.444;7.460;2023-03-13T14:29:26;1.17;;;0.57;;
59054;SDS011;44845;51.444;7.460;2023-03-13T14:31:53;2.25;;;0.43;;
59054;SDS011;44845;51.444;7.460;2023-03-13T14:34:23;2.58;;;0.40;;
59054;SDS011;44845;51.444;7.460;2023-03-13T14:42:09;1.25;;;0.55;;
59054;SDS011;44845;51.444;7.460;2023-03-13T14:44:39;4.88;;;1.00;;
59054;SDS011;44845;51.444;7.460;2023-03-13T14:47:20;1.58;;;0.63;;
59054;SDS011;44845;51.444;7.460;2023-03-13T14:49:54;0.50;;;0.40;;
59054;SDS011;44845;51.444;7.460;2023-03-13T14:52:23;0.80;;;0.50;;
59054;SDS011;44845;51.444;7.460;2023-03-13T14:54:52;0.80;;;0.40;;
59054;SDS011;44845;51.444;7.460;2023-03-13T14:57:20;5.22;;;0.40;;
59054;SDS011;44845;51.444;7.460;2023-03-13T14:59:49;0.75;;;0.40;;
59054;SDS011;44845;51.444;7.460;2023-03-13T15:04:55;1.13;;;0.70;;
59054;SDS011;44845;51.444;7.460;2023-03-13T15:10:23;2.15;;;0.70;;
59054;SDS011;44845;51.444;7.460;2023-03-13T15:12:55;0.80;;;0.40;;
59054;SDS011;44845;51.444;7.460;2023-03-13T15:15:20;1.58;;;0.70;;
59054;SDS011;44845;51.444;7.460;2023-03-13T15:17:45;0.50;;;0.40;;
59054;SDS011;44845;51.444;7.460;2023-03-13T15:20:11;0.95;;;0.30;;
59054;SDS011;44845;51.444;7.460;2023-03-13T15:22:39;0.73;;;0.43;;
59054;SDS011;44845;51.444;7.460;2023-03-13T15:25:19;1.05;;;0.55;;
59054;SDS011;44845;51.444;7.460;2023-03-13T15:27:47;1.52;;;0.40;;
59054;SDS011;44845;51.444;7.460;2023-03-13T15:30:22;1.00;;;0.35;;
59054;SDS011;44845;51.444;7.460;2023-03-13T15:32:48;2.30;;;0.70;;
59054;SDS011;44845;51.444;7.460;2023-03-13T15:37:52;0.50;;;0.50;;
59054;SDS011;44845;51.444;7.460;2023-03-13T15:40:18;1.20;;;0.60;;
59054;SDS011;44845;51.444;7.460;2023-03-13T15:42:44;1.13;;;0.40;;
59054;SDS011;44845;51.444;7.460;2023-03-13T15:45:10;3.65;;;0.80;;
59054;SDS011;44845;51.444;7.460;2023-03-13T15:47:35;0.68;;;0.50;;
59054;SDS011;44845;51.444;7.460;2023-03-13T15:50:02;3.95;;;0.50;;
59054;SDS011;44845;51.444;7.460;2023-03-13T15:52:28;1.85;;;0.50;;
59054;SDS011;44845;51.444;7.460;2023-03-13T15:54:53;1.38;;;0.50;;
59054;SDS011;44845;51.444;7.460;2023-03-13T15:57:22;1.33;;;0.50;;
59054;SDS011;44845;51.444;7.460;2023-03-13T15:59:50;3.15;;;0.70;;
59054;SDS011;44845;51.444;7.460;2023-03-13T16:02:17;2.67;;;0.70;;
59054;SDS011;44845;51.444;7.460;2023-03-13T16:04:44;3.42;;;0.52;;
59054;SDS011;44845;51.444;7.460;2023-03-13T16:07:10;4.50;;;0.90;;
59054;SDS011;44845;51.444;7.460;2023-03-13T16:09:37;2.83;;;0.85;;
59054;SDS011;44845;51.444;7.460;2023-03-13T16:12:03;2.08;;;0.52;;
59054;SDS011;44845;51.444;7.460;2023-03-13T16:14:28;3.25;;;0.57;;
59054;SDS011;44845;51.444;7.460;2023-03-13T16:16:53;2.90;;;0.60;;
59054;SDS011;44845;51.444;7.460;2023-03-13T16:19:19;5.85;;;1.00;;
59054;SDS011;44845;51.444;7.460;2023-03-13T16:21:44;4.30;;;0.60;;
59054;SDS011;44845;51.444;7.460;2023-03-13T16:24:12;10.75;;;0.90;;
59054;SDS011;44845;51.444;7.460;2023-03-13T16:26:38;3.95;;;0.68;;
59054;SDS011;44845;51.444;7.460;2023-03-13T16:29:04;1.92;;;0.88;;
59054;SDS011;44845;51.444;7.460;2023-03-13T16:31:30;0.88;;;0.50;;
59054;SDS011;44845;51.444;7.460;2023-03-13T16:33:57;3.13;;;0.65;;
59054;SDS011;44845;51.444;7.460;2023-03-13T16:36:24;1.33;;;0.70;;
59054;SDS011;44845;51.444;7.460;2023-03-13T16:38:55;3.88;;;0.77;;
59054;SDS011;44845;51.444;7.460;2023-03-13T16:41:22;2.67;;;0.85;;
59054;SDS011;44845;51.444;7.460;2023-03-13T16:43:50;2.00;;;0.77;;